Time;durP1;ratioP1;P1;durP2;ratioP2;P2;SDS_P1;SDS_P2;PMS_P1;PMS_P2;Temp;Humidity;BMP_temperature;BMP_pressure;BME280_temperature;BME280_humidity;BME280_pressure;Samples;Min_cycle;Max_cycle;Signal;HPM_P1;HPM_P2
2022/06/26 00:00:14;;;;;;;3.63;1.10;;;19.30;99.90;;;;;;10211908;29;20069;-88
2022/06/26 00:05:16;;;;;;;9.68;1.48;;;19.30;99.90;;;;;;10209993;28;20066;-87
2022/06/26 00:10:18;;;;;;;2.28;1.48;;;19.30;99.90;;;;;;10218342;28;20060;-88
2022/06/26 00:15:20;;;;;;;3.13;0.93;;;19.30;99.90;;;;;;10201534;28;20513;-87
2022/06/26 00:20:21;;;;;;;1.73;0.90;;;19.10;99.90;;;;;;10210264;28;20063;-87
2022/06/26 00:25:24;;;;;;;0.82;0.70;;;19.20;99.90;;;;;;10215496;29;20069;-87
2022/06/26 00:30:26;;;;;;;1.15;1.05;;;19.40;99.90;;;;;;10219891;28;20061;-87
2022/06/26 00:35:28;;;;;;;3.65;1.30;;;19.50;99.90;;;;;;10198771;28;20059;-88
2022/06/26 00:40:29;;;;;;;2.13;1.00;;;19.60;99.90;;;;;;10201691;28;20371;-88
2022/06/26 00:45:31;;;;;;;1.90;1.10;;;19.60;99.90;;;;;;10211762;28;20054;-88
2022/06/26 00:50:35;;;;;;;6.80;1.23;;;19.70;99.90;;;;;;10197834;28;20056;-87
2022/06/26 00:55:38;;;;;;;2.50;1.33;;;19.70;99.90;;;;;;10216320;28;20051;-88
2022/06/26 01:00:41;;;;;;;1.92;1.05;;;19.70;99.90;;;;;;10215059;28;20051;-87
2022/06/26 01:05:43;;;;;;;5.15;0.80;;;19.80;99.90;;;;;;10224051;28;20056;-87
2022/06/26 01:10:48;;;;;;;5.45;1.30;;;19.70;99.90;;;;;;10208149;28;20067;-87
2022/06/26 01:15:51;;;;;;;1.55;0.95;;;19.70;99.90;;;;;;10208446;28;20138;-88
2022/06/26 01:20:54;;;;;;;3.67;0.98;;;19.70;99.90;;;;;;10228809;28;20051;-87
2022/06/26 01:25:56;;;;;;;2.75;0.80;;;19.80;99.90;;;;;;10213240;28;20059;-87
2022/06/26 01:30:58;;;;;;;7.38;1.27;;;19.70;99.90;;;;;;10212632;28;20051;-88
2022/06/26 01:35:59;;;;;;;4.72;1.10;;;19.70;99.90;;;;;;10211752;28;20063;-87
2022/06/26 01:41:02;;;;;;;2.83;1.10;;;19.70;99.90;;;;;;10218306;28;20078;-88
2022/06/26 01:46:05;;;;;;;5.00;0.93;;;19.70;99.90;;;;;;10208187;28;20142;-87
2022/06/26 01:51:08;;;;;;;9.52;1.00;;;19.70;99.90;;;;;;10209906;28;20146;-87
2022/06/26 01:56:10;;;;;;;4.43;1.10;;;19.70;99.90;;;;;;10204990;28;20066;-87
2022/06/26 02:01:12;;;;;;;5.15;1.02;;;19.70;99.90;;;;;;10219515;28;20062;-87
2022/06/26 02:06:14;;;;;;;3.13;1.33;;;19.70;99.90;;;;;;10192445;29;20054;-87
2022/06/26 02:16:36;;;;;;;5.95;1.45;;;19.70;99.90;;;;;;10206360;28;20115;-87
2022/06/26 02:21:39;;;;;;;7.90;1.65;;;19.70;99.90;;;;;;10224593;28;20118;-87
2022/06/26 02:26:41;;;;;;;9.57;1.45;;;19.60;99.90;;;;;;10221621;29;20097;-87
2022/06/26 02:31:42;;;;;;;2.30;1.35;;;19.70;99.90;;;;;;10225871;28;20491;-87
2022/06/26 02:36:44;;;;;;;7.32;1.85;;;19.70;99.90;;;;;;10212703;29;20047;-87
2022/06/26 02:41:46;;;;;;;2.35;1.60;;;19.70;99.90;;;;;;10217638;28;20426;-87
2022/06/26 02:46:48;;;;;;;4.72;1.58;;;19.70;99.90;;;;;;10217698;28;20066;-87
2022/06/26 02:51:50;;;;;;;5.40;1.40;;;19.60;99.90;;;;;;10218977;28;20050;-85
2022/06/26 02:56:52;;;;;;;2.83;0.93;;;19.60;99.90;;;;;;10211821;28;20058;-86
2022/06/26 03:01:54;;;;;;;5.95;0.80;;;19.40;99.90;;;;;;10209721;29;20055;-86
2022/06/26 03:06:55;;;;;;;2.72;0.70;;;19.50;99.90;;;;;;10205434;28;20051;-87
2022/06/26 03:11:57;;;;;;;0.60;0.43;;;19.60;99.90;;;;;;10185616;28;20151;-86
2022/06/26 03:17:00;;;;;;;1.45;0.65;;;19.60;99.90;;;;;;10221349;28;20063;-85
2022/06/26 03:22:02;;;;;;;2.63;0.40;;;19.60;99.90;;;;;;10204365;28;20055;-85
2022/06/26 03:27:04;;;;;;;3.33;0.30;;;19.60;99.90;;;;;;10182737;28;20059;-85
2022/06/26 03:32:06;;;;;;;1.85;0.40;;;19.60;99.90;;;;;;10201771;28;20056;-85
2022/06/26 03:37:08;;;;;;;1.00;0.30;;;19.70;99.90;;;;;;10189060;29;20098;-85
2022/06/26 03:42:10;;;;;;;0.52;0.30;;;19.70;99.90;;;;;;10216900;28;20063;-85
2022/06/26 03:47:12;;;;;;;2.20;0.30;;;19.70;99.90;;;;;;10210975;29;20059;-85
2022/06/26 03:52:14;;;;;;;0.40;0.30;;;19.70;99.90;;;;;;10221611;28;20054;-85
2022/06/26 03:57:15;;;;;;;2.35;0.30;;;19.70;99.90;;;;;;10207223;28;20063;-85
2022/06/26 04:02:24;;;;;;;0.40;0.30;;;19.70;99.90;;;;;;10208634;28;20059;-85
2022/06/26 04:07:26;;;;;;;0.85;0.28;;;19.70;99.90;;;;;;10204119;28;20067;-85
2022/06/26 04:12:28;;;;;;;2.25;0.30;;;19.80;99.90;;;;;;10222520;28;20062;-85
2022/06/26 04:17:29;;;;;;;2.38;0.30;;;19.80;99.90;;;;;;10217703;28;20056;-85
2022/06/26 04:22:31;;;;;;;0.30;0.20;;;19.80;99.90;;;;;;10221826;28;20040;-85
2022/06/26 04:27:33;;;;;;;2.78;0.30;;;19.90;99.90;;;;;;10215935;28;20131;-85
2022/06/26 04:32:35;;;;;;;1.05;0.30;;;19.80;99.90;;;;;;10184346;28;20083;-85
2022/06/26 04:37:40;;;;;;;0.88;0.30;;;19.90;99.90;;;;;;10166071;29;20067;-85
2022/06/26 04:42:43;;;;;;;1.33;0.20;;;19.90;99.90;;;;;;10180283;29;20056;-85
2022/06/26 04:47:45;;;;;;;2.47;0.28;;;20.00;99.90;;;;;;10180747;28;20114;-85
2022/06/26 04:52:48;;;;;;;3.17;0.30;;;20.10;99.90;;;;;;10174727;28;20059;-85
2022/06/26 04:57:50;;;;;;;1.40;0.22;;;20.20;99.90;;;;;;10178955;29;20708;-85
2022/06/26 05:02:51;;;;;;;0.40;0.30;;;20.20;99.90;;;;;;10186987;28;20055;-84
2022/06/26 05:07:53;;;;;;;1.50;0.30;;;20.40;99.90;;;;;;10175245;28;20103;-85
2022/06/26 05:12:55;;;;;;;0.90;0.30;;;20.30;99.90;;;;;;10168883;28;20056;-85
2022/06/26 05:17:57;;;;;;;0.80;0.30;;;20.40;99.90;;;;;;10187004;28;20063;-85
2022/06/26 05:22:58;;;;;;;2.55;0.20;;;20.50;99.90;;;;;;10188907;29;20074;-85
2022/06/26 05:28:00;;;;;;;0.77;0.30;;;20.50;99.90;;;;;;10187784;29;20052;-85
2022/06/26 05:33:03;;;;;;;1.48;0.30;;;20.40;99.90;;;;;;10201475;28;20052;-85
2022/06/26 05:38:05;;;;;;;0.35;0.25;;;20.40;99.90;;;;;;10192253;29;20052;-84
2022/06/26 05:43:06;;;;;;;0.75;0.30;;;20.50;99.90;;;;;;10224983;28;20066;-84
2022/06/26 05:48:08;;;;;;;0.43;0.15;;;20.70;99.90;;;;;;10210265;29;20067;-85
2022/06/26 05:53:10;;;;;;;0.40;0.20;;;20.80;99.90;;;;;;10203278;28;20063;-85
2022/06/26 05:58:12;;;;;;;0.25;0.22;;;21.00;99.90;;;;;;10194872;28;20059;-85
2022/06/26 06:03:13;;;;;;;1.20;0.20;;;21.00;99.90;;;;;;10195895;29;20513;-85
2022/06/26 06:08:15;;;;;;;0.45;0.20;;;21.20;99.90;;;;;;10208092;29;20059;-85
2022/06/26 06:13:17;;;;;;;2.03;0.20;;;21.10;99.90;;;;;;10210526;28;20047;-85
2022/06/26 06:18:19;;;;;;;0.28;0.20;;;21.30;99.90;;;;;;10207684;28;20063;-85
2022/06/26 06:23:20;;;;;;;0.52;0.20;;;21.40;99.90;;;;;;10190847;29;20077;-85
2022/06/26 06:28:22;;;;;;;0.50;0.20;;;21.40;99.90;;;;;;10206133;29;20060;-85
2022/06/26 06:33:24;;;;;;;0.32;0.20;;;21.40;99.90;;;;;;10220410;28;20073;-85
2022/06/26 06:38:26;;;;;;;0.57;0.20;;;21.50;99.90;;;;;;10220153;28;20082;-85
2022/06/26 06:43:27;;;;;;;2.72;0.20;;;21.60;99.90;;;;;;10198309;29;20047;-85
2022/06/26 06:48:29;;;;;;;2.30;0.30;;;21.70;99.90;;;;;;10227485;28;20055;-85
2022/06/26 06:53:31;;;;;;;1.45;0.20;;;21.90;99.90;;;;;;10223467;28;20063;-85
2022/06/26 06:58:33;;;;;;;0.82;0.22;;;21.80;99.90;;;;;;10210321;28;20051;-85
2022/06/26 07:03:35;;;;;;;0.63;0.20;;;21.90;99.90;;;;;;10223545;28;20150;-85
2022/06/26 07:08:37;;;;;;;0.20;0.20;;;21.90;99.90;;;;;;10209683;28;20074;-86
2022/06/26 07:13:39;;;;;;;0.30;0.20;;;22.00;99.90;;;;;;10208312;29;20059;-86
2022/06/26 07:18:41;;;;;;;0.80;0.25;;;22.10;99.90;;;;;;10208221;28;20059;-85
2022/06/26 07:23:42;;;;;;;0.35;0.20;;;22.30;99.90;;;;;;10205496;28;20048;-85
2022/06/26 07:28:44;;;;;;;7.78;0.63;;;22.30;99.90;;;;;;10203505;28;20055;-86
2022/06/26 07:39:07;;;;;;;0.82;0.20;;;22.50;99.90;;;;;;10212264;28;20086;-87
2022/06/26 07:44:09;;;;;;;0.98;0.20;;;22.60;99.90;;;;;;10222694;28;20063;-87
2022/06/26 07:49:12;;;;;;;1.02;0.22;;;22.90;99.90;;;;;;10196185;28;20055;-86
2022/06/26 07:54:14;;;;;;;2.92;0.20;;;22.90;99.90;;;;;;10200025;28;20051;-85
2022/06/26 07:59:16;;;;;;;0.73;0.20;;;23.10;99.90;;;;;;10204391;28;20077;-85
2022/06/26 08:04:18;;;;;;;13.43;0.45;;;23.20;99.90;;;;;;10189433;28;21024;-85
2022/06/26 08:09:19;;;;;;;0.90;0.20;;;23.30;99.90;;;;;;10200234;28;20051;-86
2022/06/26 08:14:21;;;;;;;0.52;0.30;;;23.40;99.90;;;;;;10216753;28;20168;-86
2022/06/26 08:19:23;;;;;;;1.55;0.30;;;23.50;99.90;;;;;;10218476;28;20059;-86
2022/06/26 08:24:25;;;;;;;0.25;0.17;;;23.50;99.90;;;;;;10202665;28;20055;-86
2022/06/26 08:29:27;;;;;;;0.30;0.13;;;23.60;99.90;;;;;;10176061;28;20518;-86
2022/06/26 08:34:29;;;;;;;3.10;0.20;;;23.80;99.90;;;;;;10199622;28;20078;-85
2022/06/26 08:39:34;;;;;;;0.77;0.20;;;23.90;99.90;;;;;;10208436;28;20082;-86
2022/06/26 08:44:44;;;;;;;1.10;0.20;;;24.20;99.90;;;;;;10206276;28;20081;-86
2022/06/26 08:49:47;;;;;;;0.63;0.15;;;24.40;99.90;;;;;;10188639;28;20055;-86
2022/06/26 08:54:49;;;;;;;0.38;0.10;;;24.40;99.90;;;;;;10216932;28;20422;-86
2022/06/26 08:59:56;;;;;;;0.13;0.10;;;24.60;99.90;;;;;;10213214;28;20452;-86
2022/06/26 09:04:57;;;;;;;0.40;0.20;;;24.80;99.90;;;;;;10209221;28;20048;-89
2022/06/26 09:10:09;;;;;;;1.10;0.10;;;25.00;99.90;;;;;;10209290;28;20101;-88
2022/06/26 09:15:17;;;;;;;0.17;0.10;;;25.10;99.90;;;;;;10214781;28;20059;-88
2022/06/26 09:20:18;;;;;;;0.70;0.10;;;25.20;99.90;;;;;;10211069;28;20066;-88
2022/06/26 09:25:31;;;;;;;0.30;0.10;;;25.50;99.30;;;;;;10222842;28;20046;-88
2022/06/26 09:30:33;;;;;;;1.75;0.17;;;25.40;98.30;;;;;;10208013;28;20065;-88
2022/06/26 09:35:35;;;;;;;0.17;0.10;;;25.50;98.50;;;;;;10198466;28;20060;-88
2022/06/26 09:40:48;;;;;;;0.35;0.10;;;25.50;98.70;;;;;;10224435;28;20054;-88
2022/06/26 09:45:52;;;;;;;0.88;0.10;;;25.30;97.80;;;;;;10211312;28;20059;-88
2022/06/26 09:50:55;;;;;;;0.17;0.10;;;25.30;97.30;;;;;;10206725;28;20051;-88
2022/06/26 09:55:59;;;;;;;0.15;0.10;;;25.40;97.60;;;;;;10207422;28;20414;-88
2022/06/26 10:06:27;;;;;;;0.20;0.17;;;25.70;97.50;;;;;;10224685;28;20561;-88
2022/06/26 10:11:32;;;;;;;0.20;0.10;;;25.80;96.30;;;;;;10191554;28;20879;-88
2022/06/26 10:16:56;;;;;;;0.10;0.10;;;26.20;96.80;;;;;;10227716;28;20417;-88
2022/06/26 10:22:00;;;;;;;1.63;0.20;;;26.20;95.80;;;;;;10208598;28;20062;-88
2022/06/26 10:27:03;;;;;;;0.50;0.10;;;26.60;95.20;;;;;;10199505;28;20406;-88
2022/06/26 10:32:09;;;;;;;89.40;73.35;;;26.70;93.20;;;;;;10213347;28;20514;-88
2022/06/26 10:37:14;;;;;;;5.70;5.13;;;26.90;92.60;;;;;;10219422;28;20143;-88
2022/06/26 10:47:49;;;;;;;0.30;0.30;;;27.00;91.90;;;;;;10220137;28;20070;-89
2022/06/26 10:52:52;;;;;;;1.38;0.38;;;26.90;92.30;;;;;;10202600;28;20406;-88
2022/06/26 10:57:53;;;;;;;0.20;0.10;;;27.20;92.30;;;;;;10223556;28;20134;-88
2022/06/26 11:02:55;;;;;;;0.30;0.10;;;27.30;91.50;;;;;;10227649;28;20055;-88
2022/06/26 11:07:57;;;;;;;0.68;0.10;;;27.60;91.40;;;;;;10222551;28;20075;-88
2022/06/26 11:13:00;;;;;;;0.00;0.00;;;28.40;90.00;;;;;;10226350;28;20462;-88
2022/06/26 11:18:04;;;;;;;0.93;0.10;;;28.40;86.50;;;;;;10238835;28;20063;-89
2022/06/26 11:23:19;;;;;;;0.40;0.10;;;29.00;84.10;;;;;;10213396;28;20051;-88
2022/06/26 11:28:26;;;;;;;0.03;0.03;;;29.80;81.60;;;;;;10224333;28;20087;-88
2022/06/26 11:33:31;;;;;;;0.60;0.10;;;29.80;76.80;;;;;;10248605;28;20055;-88
2022/06/26 11:38:35;;;;;;;0.43;0.10;;;30.20;75.30;;;;;;10235333;28;20166;-89
2022/06/26 11:43:44;;;;;;;0.20;0.08;;;29.40;75.70;;;;;;10232195;28;20146;-89
2022/06/26 11:48:49;;;;;;;0.35;0.10;;;29.70;76.60;;;;;;10238859;28;20031;-89
2022/06/26 11:53:51;;;;;;;0.30;0.10;;;29.60;78.70;;;;;;10232973;28;20055;-89
2022/06/26 11:58:56;;;;;;;0.55;0.10;;;29.30;74.10;;;;;;10234467;28;20083;-89
2022/06/26 12:03:58;;;;;;;0.43;0.10;;;29.10;72.80;;;;;;10245843;29;20055;-88
2022/06/26 12:09:02;;;;;;;0.22;0.20;;;28.50;73.90;;;;;;10237741;28;20126;-89
2022/06/26 12:14:16;;;;;;;0.17;0.10;;;28.60;76.70;;;;;;10241195;28;20043;-89
2022/06/26 12:19:19;;;;;;;0.50;0.20;;;29.20;77.30;;;;;;10226655;29;20055;-89
2022/06/26 12:24:21;;;;;;;0.15;0.15;;;29.70;76.10;;;;;;10245587;28;20059;-89
2022/06/26 12:29:25;;;;;;;1.27;0.10;;;30.30;73.10;;;;;;10227607;29;20110;-89
2022/06/26 12:34:26;;;;;;;0.85;0.10;;;30.50;74.90;;;;;;10219653;28;20137;-89
2022/06/26 12:39:28;;;;;;;0.00;0.00;;;29.90;71.60;;;;;;10223083;28;20055;-89
2022/06/26 12:44:45;;;;;;;0.10;0.10;;;29.70;72.10;;;;;;10209790;28;20106;-89
2022/06/26 12:49:47;;;;;;;1.05;0.10;;;29.50;74.90;;;;;;10194480;28;20513;-89
2022/06/26 12:54:57;;;;;;;0.68;0.10;;;29.50;76.50;;;;;;10187071;28;20134;-89
2022/06/26 13:00:03;;;;;;;0.38;0.03;;;29.20;74.50;;;;;;10197592;28;20047;-90
2022/06/26 13:05:07;;;;;;;0.20;0.10;;;29.10;76.50;;;;;;10190657;29;20445;-90
2022/06/26 13:10:12;;;;;;;1.33;0.10;;;29.20;77.10;;;;;;10215119;28;20055;-90
2022/06/26 13:15:14;;;;;;;1.92;0.10;;;29.30;77.50;;;;;;10186309;29;20060;-90
2022/06/26 13:20:16;;;;;;;0.17;0.10;;;29.90;76.50;;;;;;10172965;29;20062;-90
2022/06/26 13:25:18;;;;;;;0.30;0.10;;;29.80;74.90;;;;;;10236641;28;20436;-90
2022/06/26 13:30:22;;;;;;;0.82;0.10;;;29.70;73.40;;;;;;10152512;29;20043;-89
2022/06/26 13:35:24;;;;;;;0.10;0.10;;;29.70;74.80;;;;;;10171546;28;20150;-89
2022/06/26 13:40:29;;;;;;;;;;;29.50;77.20;;;;;;10206826;29;20059;-90
2022/06/26 13:45:33;;;;;;;2.30;0.10;;;28.70;80.70;;;;;;10189619;29;20491;-90
2022/06/26 13:50:51;;;;;;;0.10;0.10;;;28.40;80.80;;;;;;10086875;29;20088;-90
2022/06/26 13:55:59;;;;;;;0.17;0.10;;;28.30;82.70;;;;;;10180843;29;20052;-90
2022/06/26 14:01:05;;;;;;;0.05;0.00;;;28.10;83.00;;;;;;10174867;28;20051;-89
2022/06/26 14:06:07;;;;;;;0.40;0.10;;;27.80;83.30;;;;;;10220811;28;20054;-88
2022/06/26 14:11:11;;;;;;;0.10;0.10;;;28.00;85.20;;;;;;10193335;28;20499;-89
2022/06/26 14:16:12;;;;;;;0.20;0.10;;;27.60;85.30;;;;;;10197483;28;20099;-89
2022/06/26 14:21:18;;;;;;;0.20;0.20;;;27.70;86.40;;;;;;10199743;28;20392;-90
2022/06/26 14:26:21;;;;;;;3.10;0.20;;;27.90;85.20;;;;;;10203716;28;20058;-89
2022/06/26 14:31:24;;;;;;;1.58;0.13;;;27.80;86.40;;;;;;10204922;29;20063;-89
2022/06/26 14:36:26;;;;;;;0.50;0.10;;;28.10;84.90;;;;;;10218257;28;20063;-89
2022/06/26 14:41:28;;;;;;;0.10;0.10;;;27.70;84.50;;;;;;10203559;28;20056;-89
2022/06/26 14:46:31;;;;;;;0.17;0.10;;;28.00;85.80;;;;;;10213513;28;20055;-88
2022/06/26 14:51:34;;;;;;;0.28;0.20;;;28.30;86.30;;;;;;10186462;29;20055;-89
2022/06/26 14:56:39;;;;;;;1.45;0.20;;;28.20;83.90;;;;;;10213209;28;20048;-90
2022/06/26 15:01:41;;;;;;;0.10;0.10;;;28.00;84.40;;;;;;10189861;28;20051;-88
2022/06/26 15:06:44;;;;;;;0.20;0.20;;;28.20;84.00;;;;;;10222008;28;20078;-89
2022/06/26 15:11:45;;;;;;;1.00;0.20;;;27.90;84.00;;;;;;10223882;28;20445;-89
2022/06/26 15:16:55;;;;;;;0.20;0.20;;;28.60;83.00;;;;;;10205131;28;20114;-91
2022/06/26 15:21:56;;;;;;;0.55;0.10;;;28.60;82.80;;;;;;10209794;28;20056;-88
2022/06/26 15:26:58;;;;;;;0.20;0.20;;;28.50;82.30;;;;;;10208582;28;20040;-87
2022/06/26 15:32:14;;;;;;;1.95;0.10;;;28.50;84.10;;;;;;10208106;28;20147;-88
2022/06/26 15:37:18;;;;;;;2.97;0.20;;;28.30;84.50;;;;;;10193437;28;20138;-88
2022/06/26 15:42:21;;;;;;;0.85;0.22;;;28.10;85.20;;;;;;10209042;28;20561;-88
2022/06/26 15:47:22;;;;;;;0.47;0.20;;;28.00;85.90;;;;;;10225374;28;20055;-88
2022/06/26 15:52:24;;;;;;;0.22;0.20;;;27.90;85.30;;;;;;10205810;28;20055;-88
2022/06/26 15:57:27;;;;;;;6.10;2.58;;;27.60;86.00;;;;;;10193280;28;20071;-89
2022/06/26 16:02:29;;;;;;;0.95;0.63;;;27.50;87.00;;;;;;10196956;28;20062;-89
2022/06/26 16:07:30;;;;;;;2.55;0.28;;;27.40;87.10;;;;;;10202688;28;20070;-89
2022/06/26 16:12:32;;;;;;;3.22;0.30;;;27.20;87.60;;;;;;10227095;28;20058;-89
2022/06/26 16:17:35;;;;;;;0.47;0.30;;;27.00;90.10;;;;;;10197828;28;20089;-88
2022/06/26 16:27:59;;;;;;;0.50;0.40;;;26.60;92.30;;;;;;10208500;28;20059;-88
2022/06/26 16:33:01;;;;;;;1.33;0.50;;;26.40;93.10;;;;;;10209344;28;20123;-88
2022/06/26 16:38:03;;;;;;;2.28;1.25;;;26.20;93.70;;;;;;10211023;28;20051;-89
2022/06/26 16:43:05;;;;;;;1.30;0.50;;;25.90;94.70;;;;;;10207055;28;20059;-89
2022/06/26 16:48:08;;;;;;;0.90;0.60;;;25.60;95.30;;;;;;10198037;28;20035;-89
2022/06/26 16:53:10;;;;;;;0.40;0.35;;;25.50;95.80;;;;;;10213600;28;20061;-88
2022/06/26 16:58:12;;;;;;;1.10;0.40;;;25.50;96.10;;;;;;10205977;28;20079;-88
2022/06/26 17:03:14;;;;;;;0.63;0.50;;;25.40;96.20;;;;;;10198399;28;20516;-88
2022/06/26 17:08:17;;;;;;;1.67;0.40;;;25.40;96.70;;;;;;10238224;28;20059;-89
2022/06/26 17:13:19;;;;;;;1.92;0.50;;;25.70;96.90;;;;;;10237476;28;20059;-88
2022/06/26 17:18:20;;;;;;;4.03;0.47;;;25.70;97.10;;;;;;10243405;28;20092;-89
2022/06/26 17:23:23;;;;;;;0.75;0.52;;;25.60;97.30;;;;;;10218780;28;20063;-89
2022/06/26 17:28:25;;;;;;;1.88;0.52;;;25.80;97.30;;;;;;10236656;28;20055;-88
2022/06/26 17:33:27;;;;;;;1.75;0.63;;;25.70;97.10;;;;;;10219445;28;20055;-91
2022/06/26 17:38:29;;;;;;;2.08;0.68;;;25.50;97.70;;;;;;10229855;28;20055;-89
2022/06/26 17:43:31;;;;;;;0.70;0.52;;;25.40;97.90;;;;;;10219375;28;20131;-88
2022/06/26 17:48:33;;;;;;;0.70;0.50;;;25.10;98.30;;;;;;10215240;28;20089;-88
2022/06/26 17:53:35;;;;;;;1.27;0.55;;;25.00;98.80;;;;;;10231874;28;20055;-88
2022/06/26 17:58:36;;;;;;;1.10;0.45;;;25.00;99.30;;;;;;10211697;28;20051;-88
2022/06/26 18:03:39;;;;;;;2.05;0.70;;;24.80;99.60;;;;;;10227139;28;20055;-88
2022/06/26 18:08:43;;;;;;;1.45;0.75;;;24.80;99.90;;;;;;10213496;28;20091;-88
2022/06/26 18:13:45;;;;;;;1.33;0.80;;;24.70;99.90;;;;;;10227328;28;20055;-88
2022/06/26 18:18:47;;;;;;;1.88;0.70;;;24.60;99.90;;;;;;10207575;28;20058;-88
2022/06/26 18:23:54;;;;;;;3.55;0.85;;;24.50;99.90;;;;;;10211015;28;20056;-88
2022/06/26 18:28:56;;;;;;;0.88;0.60;;;24.30;99.90;;;;;;10228565;28;20044;-88
2022/06/26 18:34:00;;;;;;;0.90;0.65;;;24.50;99.90;;;;;;10205883;28;20486;-88
2022/06/26 18:39:04;;;;;;;1.02;0.60;;;24.40;99.90;;;;;;10204708;28;20059;-88
2022/06/26 18:44:10;;;;;;;2.05;0.60;;;24.40;99.90;;;;;;10207009;28;20150;-92
2022/06/26 18:49:12;;;;;;;0.90;0.55;;;24.30;99.90;;;;;;10215383;28;21567;-92
2022/06/26 18:54:15;;;;;;;1.95;0.80;;;24.10;99.90;;;;;;10151052;28;20121;-91
2022/06/26 18:59:17;;;;;;;1.35;0.57;;;24.00;99.90;;;;;;10181540;28;20073;-91
2022/06/26 19:04:19;;;;;;;0.73;0.60;;;24.00;99.90;;;;;;10210216;28;20055;-91
2022/06/26 19:09:21;;;;;;;0.70;0.60;;;23.90;99.90;;;;;;10217123;28;20055;-91
2022/06/26 19:19:45;;;;;;;0.73;0.60;;;23.70;99.90;;;;;;10229454;28;20061;-88
2022/06/26 19:24:48;;;;;;;0.98;0.80;;;23.50;99.90;;;;;;10160030;28;20154;-87
2022/06/26 19:29:49;;;;;;;5.00;0.68;;;23.40;99.90;;;;;;10224063;28;20062;-89
2022/06/26 19:34:51;;;;;;;2.95;0.82;;;23.20;99.90;;;;;;10214808;28;20139;-89
2022/06/26 19:39:53;;;;;;;2.25;0.73;;;23.00;99.90;;;;;;10171676;29;20528;-88
2022/06/26 19:45:01;;;;;;;3.38;0.73;;;22.80;99.90;;;;;;10190376;28;20058;-88
2022/06/26 19:55:28;;;;;;;1.63;0.93;;;22.70;99.90;;;;;;10217751;28;20102;-87
2022/06/26 20:00:31;;;;;;;1.05;0.77;;;22.50;99.90;;;;;;10208573;28;20143;-86
2022/06/26 20:05:33;;;;;;;2.88;0.90;;;22.40;99.90;;;;;;10212221;28;20445;-87
2022/06/26 20:10:35;;;;;;;1.02;0.80;;;22.30;99.90;;;;;;10225427;28;20605;-89
2022/06/26 20:15:37;;;;;;;3.80;0.82;;;22.20;99.90;;;;;;10189007;28;20066;-88
2022/06/26 20:20:39;;;;;;;1.27;1.00;;;22.10;99.90;;;;;;10139651;28;20463;-89
2022/06/26 20:25:41;;;;;;;1.10;1.00;;;22.00;99.90;;;;;;10223160;28;20095;-89
2022/06/26 20:30:44;;;;;;;2.60;0.80;;;21.90;99.90;;;;;;10212229;28;20528;-89
2022/06/26 20:35:46;;;;;;;1.20;1.10;;;21.80;99.90;;;;;;10220523;28;20054;-88
2022/06/26 20:40:48;;;;;;;2.95;0.95;;;21.70;99.90;;;;;;10208051;28;20051;-88
2022/06/26 20:45:53;;;;;;;1.08;0.80;;;21.60;99.90;;;;;;10203992;28;20055;-89
2022/06/26 20:50:57;;;;;;;2.33;1.10;;;21.60;99.90;;;;;;10169419;28;20048;-89
2022/06/26 20:55:59;;;;;;;1.23;1.00;;;21.50;99.90;;;;;;10188193;29;20119;-90
2022/06/26 21:01:02;;;;;;;2.10;1.02;;;21.50;99.90;;;;;;10224547;28;20062;-89
2022/06/26 21:06:04;;;;;;;3.60;1.10;;;21.40;99.90;;;;;;10218437;28;20111;-89
2022/06/26 21:11:07;;;;;;;1.92;1.20;;;21.40;99.90;;;;;;10219834;28;20092;-88
2022/06/26 21:16:10;;;;;;;2.72;1.30;;;21.40;99.90;;;;;;10221763;28;20051;-87
2022/06/26 21:21:13;;;;;;;1.30;1.20;;;21.40;99.90;;;;;;10218822;28;20486;-87
2022/06/26 21:26:16;;;;;;;1.42;1.15;;;21.40;99.90;;;;;;10217659;28;20826;-88
2022/06/26 21:31:17;;;;;;;1.13;1.02;;;21.40;99.90;;;;;;10213147;28;20061;-88
2022/06/26 21:36:19;;;;;;;1.80;1.00;;;21.30;99.90;;;;;;10195217;28;20055;-88
2022/06/26 21:41:22;;;;;;;1.50;0.98;;;21.30;99.90;;;;;;10223755;28;20482;-88
2022/06/26 21:46:25;;;;;;;3.15;1.08;;;21.30;99.90;;;;;;10196927;28;20059;-88
2022/06/26 21:51:26;;;;;;;1.38;0.77;;;21.20;99.90;;;;;;10226825;28;20336;-88
2022/06/26 21:56:28;;;;;;;1.10;0.90;;;21.30;99.90;;;;;;10218256;28;20051;-88
2022/06/26 22:01:30;;;;;;;1.80;0.77;;;21.20;99.90;;;;;;10195838;29;20055;-88
2022/06/26 22:06:32;;;;;;;2.80;1.20;;;21.10;99.90;;;;;;10216338;28;20065;-88
2022/06/26 22:11:34;;;;;;;1.08;0.98;;;21.20;99.90;;;;;;10198563;28;20067;-87
2022/06/26 22:16:36;;;;;;;1.73;1.20;;;21.30;99.90;;;;;;10161769;28;20056;-88
2022/06/26 22:21:38;;;;;;;6.45;1.60;;;21.20;99.90;;;;;;10194649;28;20364;-88
2022/06/26 22:32:01;;;;;;;1.85;1.27;;;21.10;99.90;;;;;;10187933;28;20065;-89
2022/06/26 22:37:03;;;;;;;2.13;1.73;;;21.00;99.90;;;;;;10188339;29;20050;-89
2022/06/26 22:42:06;;;;;;;1.83;1.70;;;20.90;99.90;;;;;;10178291;28;20176;-89
2022/06/26 22:47:09;;;;;;;2.53;1.77;;;20.70;99.90;;;;;;10143111;29;20067;-89
2022/06/26 22:52:13;;;;;;;7.22;1.90;;;20.50;99.90;;;;;;10157122;28;20546;-89
2022/06/26 22:57:15;;;;;;;2.08;1.88;;;20.30;99.90;;;;;;10167948;29;20406;-89
2022/06/26 23:02:19;;;;;;;3.80;2.08;;;20.20;99.90;;;;;;10206874;28;20044;-88
2022/06/26 23:07:22;;;;;;;4.25;2.05;;;20.10;99.90;;;;;;10170074;29;20439;-89
2022/06/26 23:12:26;;;;;;;3.00;2.25;;;20.00;99.90;;;;;;10012856;29;20067;-90
2022/06/26 23:17:30;;;;;;;3.33;2.58;;;19.90;99.90;;;;;;9888745;29;20081;-89
2022/06/26 23:22:33;;;;;;;2.92;2.42;;;19.70;99.90;;;;;;10053930;29;20052;-90
2022/06/26 23:27:36;;;;;;;3.72;2.47;;;19.50;99.90;;;;;;10094596;29;20063;-90
2022/06/26 23:32:38;;;;;;;5.28;2.80;;;19.40;99.90;;;;;;10123125;28;20056;-90
2022/06/26 23:37:41;;;;;;;4.18;2.72;;;19.40;99.90;;;;;;10070679;29;20118;-90
2022/06/26 23:42:43;;;;;;;3.97;2.72;;;19.30;99.90;;;;;;10170693;28;21365;-91
2022/06/26 23:47:47;;;;;;;4.15;3.15;;;19.10;99.90;;;;;;10128854;28;20098;-90
2022/06/26 23:52:49;;;;;;;7.07;3.70;;;19.10;99.90;;;;;;10187784;28;20114;-91
2022/06/26 23:57:51;;;;;;;4.45;2.70;;;19.10;99.90;;;;;;10182313;28;20051;-90
